sensor_id;sensor_type;location;lat;lon;timestamp;temperature;humidity
57030;DHT22;42920;45.306;20.448;2023-07-13T00:00:24;717.30;2432.00
57030;DHT22;42920;45.306;20.448;2023-07-13T00:02:50;717.40;2432.00
57030;DHT22;42920;45.306;20.448;2023-07-13T00:05:22;717.40;2432.00
57030;DHT22;42920;45.306;20.448;2023-07-13T00:07:49;717.50;2432.00
57030;DHT22;42920;45.306;20.448;2023-07-13T00:10:15;717.20;2432.00
57030;DHT22;42920;45.306;20.448;2023-07-13T00:12:41;717.10;2432.00
57030;DHT22;42920;45.306;20.448;2023-07-13T00:15:13;717.10;2432.00
57030;DHT22;42920;45.306;20.448;2023-07-13T00:17:41;717.20;2432.00
57030;DHT22;42920;45.306;20.448;2023-07-13T00:20:08;717.10;2432.00
57030;DHT22;42920;45.306;20.448;2023-07-13T00:22:34;717.00;2432.00
57030;DHT22;42920;45.306;20.448;2023-07-13T00:25:00;716.90;2432.00
57030;DHT22;42920;45.306;20.448;2023-07-13T00:27:26;716.90;2432.00
57030;DHT22;42920;45.306;20.448;2023-07-13T00:29:52;716.90;2432.00
57030;DHT22;42920;45.306;20.448;2023-07-13T00:32:18;716.80;2432.00
57030;DHT22;42920;45.306;20.448;2023-07-13T00:34:44;716.80;2432.00
57030;DHT22;42920;45.306;20.448;2023-07-13T00:37:10;716.80;2432.00
57030;DHT22;42920;45.306;20.448;2023-07-13T00:39:36;716.80;2432.00
57030;DHT22;42920;45.306;20.448;2023-07-13T00:42:03;716.80;2432.00
57030;DHT22;42920;45.306;20.448;2023-07-13T00:44:28;716.80;2432.00
57030;DHT22;42920;45.306;20.448;2023-07-13T00:46:54;716.80;2432.00
57030;DHT22;42920;45.306;20.448;2023-07-13T00:49:23;692.00;2432.00
57030;DHT22;42920;45.306;20.448;2023-07-13T00:51:53;691.90;2432.00
57030;DHT22;42920;45.306;20.448;2023-07-13T00:54:28;691.80;2432.00
57030;DHT22;42920;45.306;20.448;2023-07-13T00:56:58;691.80;2432.00
57030;DHT22;42920;45.306;20.448;2023-07-13T00:59:24;691.90;2432.00
57030;DHT22;42920;45.306;20.448;2023-07-13T01:01:50;691.70;2432.00
57030;DHT22;42920;45.306;20.448;2023-07-13T01:04:17;691.60;2432.00
57030;DHT22;42920;45.306;20.448;2023-07-13T01:06:43;691.60;2432.00
57030;DHT22;42920;45.306;20.448;2023-07-13T01:09:10;691.50;2432.00
57030;DHT22;42920;45.306;20.448;2023-07-13T01:11:36;691.50;2432.00
57030;DHT22;42920;45.306;20.448;2023-07-13T01:14:03;691.20;2432.00
57030;DHT22;42920;45.306;20.448;2023-07-13T01:16:32;691.40;2432.00
57030;DHT22;42920;45.306;20.448;2023-07-13T01:18:58;691.40;2432.00
57030;DHT22;42920;45.306;20.448;2023-07-13T01:21:25;691.30;2432.00
57030;DHT22;42920;45.306;20.448;2023-07-13T01:23:51;691.20;2432.00
57030;DHT22;42920;45.306;20.448;2023-07-13T01:26:17;666.50;2432.00
57030;DHT22;42920;45.306;20.448;2023-07-13T01:28:43;666.50;2432.00
57030;DHT22;42920;45.306;20.448;2023-07-13T01:31:09;666.50;2432.00
57030;DHT22;42920;45.306;20.448;2023-07-13T01:33:37;666.30;2432.00
57030;DHT22;42920;45.306;20.448;2023-07-13T01:36:05;666.30;2432.00
57030;DHT22;42920;45.306;20.448;2023-07-13T01:38:32;666.30;2432.00
57030;DHT22;42920;45.306;20.448;2023-07-13T01:40:59;666.40;2432.00
57030;DHT22;42920;45.306;20.448;2023-07-13T01:43:25;666.30;2432.00
57030;DHT22;42920;45.306;20.448;2023-07-13T01:45:50;666.40;2432.00
57030;DHT22;42920;45.306;20.448;2023-07-13T01:48:16;666.30;2432.00
57030;DHT22;42920;45.306;20.448;2023-07-13T01:50:42;666.20;2432.00
57030;DHT22;42920;45.306;20.448;2023-07-13T01:53:08;666.30;2432.00
57030;DHT22;42920;45.306;20.448;2023-07-13T01:55:34;666.40;2432.00
57030;DHT22;42920;45.306;20.448;2023-07-13T01:58:01;666.40;2432.00
57030;DHT22;42920;45.306;20.448;2023-07-13T02:00:26;666.50;2432.00
57030;DHT22;42920;45.306;20.448;2023-07-13T02:02:52;666.40;2432.00
57030;DHT22;42920;45.306;20.448;2023-07-13T02:05:18;666.50;2432.00
57030;DHT22;42920;45.306;20.448;2023-07-13T02:07:44;666.40;2432.00
57030;DHT22;42920;45.306;20.448;2023-07-13T02:10:11;666.30;2432.00
57030;DHT22;42920;45.306;20.448;2023-07-13T02:12:37;666.40;2432.00
57030;DHT22;42920;45.306;20.448;2023-07-13T02:15:04;666.50;2432.00
57030;DHT22;42920;45.306;20.448;2023-07-13T02:17:30;666.40;2432.00
57030;DHT22;42920;45.306;20.448;2023-07-13T02:19:55;666.30;2432.00
57030;DHT22;42920;45.306;20.448;2023-07-13T02:22:21;666.30;2432.00
57030;DHT22;42920;45.306;20.448;2023-07-13T02:24:48;666.20;2432.00
57030;DHT22;42920;45.306;20.448;2023-07-13T02:27:13;666.20;2432.00
57030;DHT22;42920;45.306;20.448;2023-07-13T02:29:39;666.00;2432.00
57030;DHT22;42920;45.306;20.448;2023-07-13T02:32:05;665.90;2432.00
57030;DHT22;42920;45.306;20.448;2023-07-13T02:34:31;665.80;2432.00
57030;DHT22;42920;45.306;20.448;2023-07-13T02:36:56;665.70;2432.00
57030;DHT22;42920;45.306;20.448;2023-07-13T02:39:22;665.70;2432.00
57030;DHT22;42920;45.306;20.448;2023-07-13T02:41:48;665.70;2432.00
57030;DHT22;42920;45.306;20.448;2023-07-13T02:44:14;665.70;2432.00
57030;DHT22;42920;45.306;20.448;2023-07-13T02:46:40;665.80;2432.00
57030;DHT22;42920;45.306;20.448;2023-07-13T02:49:06;640.90;2432.00
57030;DHT22;42920;45.306;20.448;2023-07-13T02:51:32;665.90;2432.00
57030;DHT22;42920;45.306;20.448;2023-07-13T02:54:00;666.00;2432.00
57030;DHT22;42920;45.306;20.448;2023-07-13T02:56:27;666.00;2432.00
57030;DHT22;42920;45.306;20.448;2023-07-13T02:58:53;666.00;2432.00
57030;DHT22;42920;45.306;20.448;2023-07-13T03:01:20;666.10;2432.00
57030;DHT22;42920;45.306;20.448;2023-07-13T03:03:48;666.30;2432.00
57030;DHT22;42920;45.306;20.448;2023-07-13T03:06:14;666.20;2432.00
57030;DHT22;42920;45.306;20.448;2023-07-13T03:08:41;666.20;2432.00
57030;DHT22;42920;45.306;20.448;2023-07-13T03:11:18;666.30;2432.00
57030;DHT22;42920;45.306;20.448;2023-07-13T03:13:44;666.30;2432.00
57030;DHT22;42920;45.306;20.448;2023-07-13T03:16:10;666.30;2432.00
57030;DHT22;42920;45.306;20.448;2023-07-13T03:18:37;666.20;2432.00
57030;DHT22;42920;45.306;20.448;2023-07-13T03:21:04;666.10;2432.00
57030;DHT22;42920;45.306;20.448;2023-07-13T03:23:31;666.30;2432.00
57030;DHT22;42920;45.306;20.448;2023-07-13T03:26:17;666.30;2432.00
57030;DHT22;42920;45.306;20.448;2023-07-13T03:28:44;666.50;2432.00
57030;DHT22;42920;45.306;20.448;2023-07-13T03:31:12;691.20;2432.00
57030;DHT22;42920;45.306;20.448;2023-07-13T03:33:39;691.30;2432.00
57030;DHT22;42920;45.306;20.448;2023-07-13T03:36:06;691.30;2432.00
57030;DHT22;42920;45.306;20.448;2023-07-13T03:38:32;691.40;2432.00
57030;DHT22;42920;45.306;20.448;2023-07-13T03:40:58;691.40;2432.00
57030;DHT22;42920;45.306;20.448;2023-07-13T03:43:24;691.40;2432.00
57030;DHT22;42920;45.306;20.448;2023-07-13T03:45:50;691.30;2432.00
57030;DHT22;42920;45.306;20.448;2023-07-13T03:48:16;691.40;2432.00
57030;DHT22;42920;45.306;20.448;2023-07-13T03:50:42;691.20;2432.00
57030;DHT22;42920;45.306;20.448;2023-07-13T03:53:08;666.40;2432.00
57030;DHT22;42920;45.306;20.448;2023-07-13T03:55:33;666.30;2432.00
57030;DHT22;42920;45.306;20.448;2023-07-13T03:58:24;666.30;2432.00
57030;DHT22;42920;45.306;20.448;2023-07-13T04:00:47;666.50;2432.00
57030;DHT22;42920;45.306;20.448;2023-07-13T04:03:12;666.30;2432.00
57030;DHT22;42920;45.306;20.448;2023-07-13T04:05:38;666.30;2432.00
57030;DHT22;42920;45.306;20.448;2023-07-13T04:08:06;666.00;2432.00
57030;DHT22;42920;45.306;20.448;2023-07-13T04:10:31;666.00;2432.00
57030;DHT22;42920;45.306;20.448;2023-07-13T04:12:57;665.80;2432.00
57030;DHT22;42920;45.306;20.448;2023-07-13T04:15:23;665.90;2432.00
57030;DHT22;42920;45.306;20.448;2023-07-13T04:17:48;665.80;2432.00
57030;DHT22;42920;45.306;20.448;2023-07-13T04:20:14;665.80;2432.00
57030;DHT22;42920;45.306;20.448;2023-07-13T04:22:40;665.80;2432.00
57030;DHT22;42920;45.306;20.448;2023-07-13T04:25:06;665.90;2432.00
57030;DHT22;42920;45.306;20.448;2023-07-13T04:27:32;665.90;2432.00
57030;DHT22;42920;45.306;20.448;2023-07-13T04:29:57;665.90;2432.00
57030;DHT22;42920;45.306;20.448;2023-07-13T04:32:23;665.90;2432.00
57030;DHT22;42920;45.306;20.448;2023-07-13T04:34:49;666.00;2432.00
57030;DHT22;42920;45.306;20.448;2023-07-13T04:37:19;666.00;2432.00
57030;DHT22;42920;45.306;20.448;2023-07-13T04:39:45;666.00;2432.00
57030;DHT22;42920;45.306;20.448;2023-07-13T04:42:11;666.00;2432.00
57030;DHT22;42920;45.306;20.448;2023-07-13T04:44:36;666.10;2432.00
57030;DHT22;42920;45.306;20.448;2023-07-13T04:47:02;666.20;2432.00
57030;DHT22;42920;45.306;20.448;2023-07-13T04:49:28;666.20;2432.00
57030;DHT22;42920;45.306;20.448;2023-07-13T04:51:53;666.30;2432.00
57030;DHT22;42920;45.306;20.448;2023-07-13T04:54:20;666.50;2432.00
57030;DHT22;42920;45.306;20.448;2023-07-13T10:03:53;871.10;1843.20
57030;DHT22;42920;45.306;20.448;2023-07-13T10:08:52;922.00;1510.40
57030;DHT22;42920;45.306;20.448;2023-07-13T10:11:20;922.50;1587.20
57030;DHT22;42920;45.306;20.448;2023-07-13T10:16:23;947.50;1484.80
57030;DHT22;42920;45.306;20.448;2023-07-13T10:18:53;947.30;1459.20
57030;DHT22;42920;45.306;20.448;2023-07-13T10:21:22;948.10;1459.20
57030;DHT22;42920;45.306;20.448;2023-07-13T10:26:33;972.90;1382.40
57030;DHT22;42920;45.306;20.448;2023-07-13T10:29:08;947.90;1382.40
57030;DHT22;42920;45.306;20.448;2023-07-13T10:31:38;948.10;1408.00
57030;DHT22;42920;45.306;20.448;2023-07-13T10:34:04;973.00;1408.00
57030;DHT22;42920;45.306;20.448;2023-07-13T10:36:40;972.90;1382.40
57030;DHT22;42920;45.306;20.448;2023-07-13T10:39:06;972.80;1433.60
57030;DHT22;42920;45.306;20.448;2023-07-13T10:41:37;972.80;1433.60
57030;DHT22;42920;45.306;20.448;2023-07-13T10:44:04;948.00;1408.00
57030;DHT22;42920;45.306;20.448;2023-07-13T10:46:32;947.80;1408.00
57030;DHT22;42920;45.306;20.448;2023-07-13T10:49:04;947.90;1459.20
57030;DHT22;42920;45.306;20.448;2023-07-13T10:51:31;947.80;1408.00
57030;DHT22;42920;45.306;20.448;2023-07-13T10:54:20;947.60;1382.40
57030;DHT22;42920;45.306;20.448;2023-07-13T10:56:50;947.70;1382.40
57030;DHT22;42920;45.306;20.448;2023-07-13T10:59:23;947.80;1408.00
57030;DHT22;42920;45.306;20.448;2023-07-13T11:01:58;948.10;1408.00
57030;DHT22;42920;45.306;20.448;2023-07-13T11:04:26;972.80;1382.40
57030;DHT22;42920;45.306;20.448;2023-07-13T11:06:59;948.10;1408.00
57030;DHT22;42920;45.306;20.448;2023-07-13T11:09:41;972.80;1408.00
57030;DHT22;42920;45.306;20.448;2023-07-13T11:22:43;973.00;1331.20
57030;DHT22;42920;45.306;20.448;2023-07-13T11:25:30;973.00;1331.20
57030;DHT22;42920;45.306;20.448;2023-07-13T11:30:40;973.10;1305.60
57030;DHT22;42920;45.306;20.448;2023-07-13T11:36:04;973.00;1305.60
57030;DHT22;42920;45.306;20.448;2023-07-13T11:38:39;973.10;1356.80
57030;DHT22;42920;45.306;20.448;2023-07-13T11:43:39;973.20;1356.80
57030;DHT22;42920;45.306;20.448;2023-07-13T11:46:20;973.30;1331.20
57030;DHT22;42920;45.306;20.448;2023-07-13T11:48:48;973.20;1331.20
57030;DHT22;42920;45.306;20.448;2023-07-13T11:51:23;973.20;1305.60
57030;DHT22;42920;45.306;20.448;2023-07-13T11:53:52;973.30;1280.00
57030;DHT22;42920;45.306;20.448;2023-07-13T11:56:18;973.30;1331.20
57030;DHT22;42920;45.306;20.448;2023-07-13T11:58:49;973.20;1305.60
57030;DHT22;42920;45.306;20.448;2023-07-13T12:01:25;973.40;1280.00
57030;DHT22;42920;45.306;20.448;2023-07-13T12:03:52;973.70;1280.00
57030;DHT22;42920;45.306;20.448;2023-07-13T12:06:35;973.70;1280.00
57030;DHT22;42920;45.306;20.448;2023-07-13T12:09:14;973.70;1280.00
57030;DHT22;42920;45.306;20.448;2023-07-13T12:11:43;973.70;1305.60
57030;DHT22;42920;45.306;20.448;2023-07-13T12:14:17;973.70;1254.40
57030;DHT22;42920;45.306;20.448;2023-07-13T12:16:45;973.60;1254.40
57030;DHT22;42920;45.306;20.448;2023-07-13T12:19:22;973.30;1280.00
57030;DHT22;42920;45.306;20.448;2023-07-13T12:21:48;973.20;1305.60
57030;DHT22;42920;45.306;20.448;2023-07-13T12:24:16;973.20;1305.60
57030;DHT22;42920;45.306;20.448;2023-07-13T12:26:42;973.40;1280.00
57030;DHT22;42920;45.306;20.448;2023-07-13T12:29:11;973.70;1280.00
57030;DHT22;42920;45.306;20.448;2023-07-13T12:31:43;973.70;1280.00
57030;DHT22;42920;45.306;20.448;2023-07-13T12:34:18;973.70;1280.00
57030;DHT22;42920;45.306;20.448;2023-07-13T12:36:56;973.30;1280.00
57030;DHT22;42920;45.306;20.448;2023-07-13T12:39:48;973.70;1280.00
57030;DHT22;42920;45.306;20.448;2023-07-13T12:42:30;973.70;1280.00
57030;DHT22;42920;45.306;20.448;2023-07-13T12:48:10;973.70;1254.40
57030;DHT22;42920;45.306;20.448;2023-07-13T12:50:41;973.70;1228.80
57030;DHT22;42920;45.306;20.448;2023-07-13T12:53:28;973.60;1228.80
57030;DHT22;42920;45.306;20.448;2023-07-13T12:55:56;973.30;1228.80
57030;DHT22;42920;45.306;20.448;2023-07-13T12:58:30;973.20;1254.40
57030;DHT22;42920;45.306;20.448;2023-07-13T13:00:59;972.80;1280.00
57030;DHT22;42920;45.306;20.448;2023-07-13T13:03:40;973.00;1280.00
57030;DHT22;42920;45.306;20.448;2023-07-13T13:08:40;973.40;1254.40
57030;DHT22;42920;45.306;20.448;2023-07-13T13:11:08;973.70;1228.80
57030;DHT22;42920;45.306;20.448;2023-07-13T13:13:35;973.30;1228.80
57030;DHT22;42920;45.306;20.448;2023-07-13T13:16:23;973.70;1228.80
57030;DHT22;42920;45.306;20.448;2023-07-13T13:18:51;973.70;1228.80
57030;DHT22;42920;45.306;20.448;2023-07-13T13:21:17;973.70;1228.80
57030;DHT22;42920;45.306;20.448;2023-07-13T13:23:44;973.70;1228.80
57030;DHT22;42920;45.306;20.448;2023-07-13T13:26:13;973.40;1254.40
57030;DHT22;42920;45.306;20.448;2023-07-13T13:28:41;973.40;1254.40
57030;DHT22;42920;45.306;20.448;2023-07-13T13:31:08;973.60;1228.80
57030;DHT22;42920;45.306;20.448;2023-07-13T13:33:38;973.40;1228.80
57030;DHT22;42920;45.306;20.448;2023-07-13T13:36:19;973.30;1228.80
57030;DHT22;42920;45.306;20.448;2023-07-13T13:38:45;973.70;1228.80
57030;DHT22;42920;45.306;20.448;2023-07-13T13:41:12;973.30;1254.40
57030;DHT22;42920;45.306;20.448;2023-07-13T13:43:39;973.20;1280.00
57030;DHT22;42920;45.306;20.448;2023-07-13T13:46:17;973.00;1280.00
57030;DHT22;42920;45.306;20.448;2023-07-13T13:48:44;972.80;1305.60
57030;DHT22;42920;45.306;20.448;2023-07-13T13:51:21;948.10;1280.00
57030;DHT22;42920;45.306;20.448;2023-07-13T13:53:47;948.10;1280.00
57030;DHT22;42920;45.306;20.448;2023-07-13T13:56:18;973.00;1305.60
57030;DHT22;42920;45.306;20.448;2023-07-13T13:58:44;973.20;1305.60
57030;DHT22;42920;45.306;20.448;2023-07-13T14:01:20;973.10;1305.60
57030;DHT22;42920;45.306;20.448;2023-07-13T14:03:46;973.20;1305.60
57030;DHT22;42920;45.306;20.448;2023-07-13T14:06:15;973.20;1305.60
57030;DHT22;42920;45.306;20.448;2023-07-13T14:08:41;973.20;1305.60
57030;DHT22;42920;45.306;20.448;2023-07-13T14:11:12;973.20;1305.60
57030;DHT22;42920;45.306;20.448;2023-07-13T14:13:53;973.00;1305.60
57030;DHT22;42920;45.306;20.448;2023-07-13T14:16:21;948.10;1280.00
57030;DHT22;42920;45.306;20.448;2023-07-13T14:18:48;972.80;1305.60
57030;DHT22;42920;45.306;20.448;2023-07-13T14:21:17;973.00;1305.60
57030;DHT22;42920;45.306;20.448;2023-07-13T14:23:45;973.10;1305.60
57030;DHT22;42920;45.306;20.448;2023-07-13T14:26:15;973.00;1280.00
57030;DHT22;42920;45.306;20.448;2023-07-13T14:28:44;972.80;1331.20
57030;DHT22;42920;45.306;20.448;2023-07-13T14:31:14;948.00;1305.60
57030;DHT22;42920;45.306;20.448;2023-07-13T14:33:40;948.00;1280.00
57030;DHT22;42920;45.306;20.448;2023-07-13T14:36:32;948.10;1331.20
57030;DHT22;42920;45.306;20.448;2023-07-13T14:41:43;947.90;1280.00
57030;DHT22;42920;45.306;20.448;2023-07-13T14:44:17;947.60;1280.00
57030;DHT22;42920;45.306;20.448;2023-07-13T14:46:44;947.50;1305.60
57030;DHT22;42920;45.306;20.448;2023-07-13T14:49:32;947.30;1305.60
57030;DHT22;42920;45.306;20.448;2023-07-13T14:52:19;947.20;1331.20
57030;DHT22;42920;45.306;20.448;2023-07-13T14:54:45;947.50;1305.60
57030;DHT22;42920;45.306;20.448;2023-07-13T14:57:13;947.90;1280.00
57030;DHT22;42920;45.306;20.448;2023-07-13T14:59:39;948.00;1280.00
57030;DHT22;42920;45.306;20.448;2023-07-13T15:02:17;948.10;1280.00
57030;DHT22;42920;45.306;20.448;2023-07-13T15:04:44;948.10;1254.40
57030;DHT22;42920;45.306;20.448;2023-07-13T15:07:11;948.10;1254.40
57030;DHT22;42920;45.306;20.448;2023-07-13T15:09:38;948.00;1280.00
57030;DHT22;42920;45.306;20.448;2023-07-13T15:12:05;948.00;1254.40
57030;DHT22;42920;45.306;20.448;2023-07-13T15:14:31;947.90;1305.60
57030;DHT22;42920;45.306;20.448;2023-07-13T15:16:57;947.90;1280.00
57030;DHT22;42920;45.306;20.448;2023-07-13T15:19:23;947.90;1254.40
57030;DHT22;42920;45.306;20.448;2023-07-13T15:21:49;947.90;1280.00
57030;DHT22;42920;45.306;20.448;2023-07-13T15:24:17;948.00;1280.00
57030;DHT22;42920;45.306;20.448;2023-07-13T15:26:43;948.10;1280.00
57030;DHT22;42920;45.306;20.448;2023-07-13T15:29:17;948.00;1280.00
57030;DHT22;42920;45.306;20.448;2023-07-13T15:31:43;947.60;1280.00
57030;DHT22;42920;45.306;20.448;2023-07-13T15:34:14;947.40;1305.60
57030;DHT22;42920;45.306;20.448;2023-07-13T15:36:40;947.50;1305.60
57030;DHT22;42920;45.306;20.448;2023-07-13T15:39:06;947.60;1254.40
57030;DHT22;42920;45.306;20.448;2023-07-13T15:41:33;947.60;1280.00
57030;DHT22;42920;45.306;20.448;2023-07-13T15:44:00;947.40;1280.00
57030;DHT22;42920;45.306;20.448;2023-07-13T15:46:30;922.50;1280.00
57030;DHT22;42920;45.306;20.448;2023-07-13T15:48:57;922.40;1280.00
57030;DHT22;42920;45.306;20.448;2023-07-13T15:51:25;922.40;1280.00
57030;DHT22;42920;45.306;20.448;2023-07-13T15:53:55;922.30;1305.60
57030;DHT22;42920;45.306;20.448;2023-07-13T15:56:24;922.40;1331.20
57030;DHT22;42920;45.306;20.448;2023-07-13T15:58:52;947.20;1331.20
57030;DHT22;42920;45.306;20.448;2023-07-13T16:01:18;947.20;1305.60
57030;DHT22;42920;45.306;20.448;2023-07-13T16:03:45;922.50;1331.20
57030;DHT22;42920;45.306;20.448;2023-07-13T16:08:43;922.20;1356.80
57030;DHT22;42920;45.306;20.448;2023-07-13T16:11:16;922.10;1382.40
57030;DHT22;42920;45.306;20.448;2023-07-13T16:13:43;922.10;1356.80
57030;DHT22;42920;45.306;20.448;2023-07-13T16:16:11;922.10;1331.20
57030;DHT22;42920;45.306;20.448;2023-07-13T16:18:37;922.00;1331.20
57030;DHT22;42920;45.306;20.448;2023-07-13T16:21:09;922.00;1331.20
57030;DHT22;42920;45.306;20.448;2023-07-13T16:23:37;922.00;1356.80
57030;DHT22;42920;45.306;20.448;2023-07-13T16:26:03;922.00;1356.80
57030;DHT22;42920;45.306;20.448;2023-07-13T16:28:30;921.80;1331.20
57030;DHT22;42920;45.306;20.448;2023-07-13T16:30:56;921.80;1356.80
57030;DHT22;42920;45.306;20.448;2023-07-13T16:33:22;921.70;1356.80
57030;DHT22;42920;45.306;20.448;2023-07-13T16:35:47;896.90;1331.20
57030;DHT22;42920;45.306;20.448;2023-07-13T16:38:16;896.80;1331.20
57030;DHT22;42920;45.306;20.448;2023-07-13T16:40:43;896.60;1331.20
57030;DHT22;42920;45.306;20.448;2023-07-13T16:43:13;896.40;1356.80
57030;DHT22;42920;45.306;20.448;2023-07-13T16:45:39;896.20;1382.40
57030;DHT22;42920;45.306;20.448;2023-07-13T16:48:17;871.30;1382.40
57030;DHT22;42920;45.306;20.448;2023-07-13T16:50:44;871.30;1408.00
57030;DHT22;42920;45.306;20.448;2023-07-13T16:53:27;871.30;1408.00
57030;DHT22;42920;45.306;20.448;2023-07-13T16:55:54;871.10;1433.60
57030;DHT22;42920;45.306;20.448;2023-07-13T16:58:22;871.10;1433.60
57030;DHT22;42920;45.306;20.448;2023-07-13T17:00:51;871.10;1433.60
57030;DHT22;42920;45.306;20.448;2023-07-13T17:03:17;871.00;1433.60
57030;DHT22;42920;45.306;20.448;2023-07-13T17:05:44;870.90;1433.60
57030;DHT22;42920;45.306;20.448;2023-07-13T17:08:31;870.80;1433.60
57030;DHT22;42920;45.306;20.448;2023-07-13T17:10:59;870.80;1459.20
57030;DHT22;42920;45.306;20.448;2023-07-13T17:13:27;870.70;1459.20
57030;DHT22;42920;45.306;20.448;2023-07-13T17:15:54;870.70;1459.20
57030;DHT22;42920;45.306;20.448;2023-07-13T17:18:28;870.70;1459.20
57030;DHT22;42920;45.306;20.448;2023-07-13T17:21:05;870.70;1484.80
57030;DHT22;42920;45.306;20.448;2023-07-13T17:23:31;870.60;1484.80
57030;DHT22;42920;45.306;20.448;2023-07-13T17:25:58;870.60;1510.40
57030;DHT22;42920;45.306;20.448;2023-07-13T17:28:24;870.50;1536.00
57030;DHT22;42920;45.306;20.448;2023-07-13T17:30:52;870.40;1536.00
57030;DHT22;42920;45.306;20.448;2023-07-13T17:33:28;870.40;1536.00
57030;DHT22;42920;45.306;20.448;2023-07-13T17:35:56;845.70;1536.00
57030;DHT22;42920;45.306;20.448;2023-07-13T17:38:22;845.70;1561.60
57030;DHT22;42920;45.306;20.448;2023-07-13T17:40:49;845.50;1561.60
57030;DHT22;42920;45.306;20.448;2023-07-13T17:43:14;845.50;1561.60
57030;DHT22;42920;45.306;20.448;2023-07-13T17:45:41;845.40;1587.20
57030;DHT22;42920;45.306;20.448;2023-07-13T17:48:10;845.20;1612.80
57030;DHT22;42920;45.306;20.448;2023-07-13T17:50:37;845.00;1638.40
57030;DHT22;42920;45.306;20.448;2023-07-13T17:53:18;844.90;1638.40
57030;DHT22;42920;45.306;20.448;2023-07-13T17:55:44;844.80;1664.00
57030;DHT22;42920;45.306;20.448;2023-07-13T17:58:10;820.00;1638.40
57030;DHT22;42920;45.306;20.448;2023-07-13T18:00:38;819.90;1638.40
57030;DHT22;42920;45.306;20.448;2023-07-13T18:03:12;819.80;1638.40
57030;DHT22;42920;45.306;20.448;2023-07-13T18:05:39;819.80;1638.40
57030;DHT22;42920;45.306;20.448;2023-07-13T18:08:10;819.80;1638.40
57030;DHT22;42920;45.306;20.448;2023-07-13T18:10:42;819.80;1664.00
57030;DHT22;42920;45.306;20.448;2023-07-13T18:13:08;819.60;1664.00
57030;DHT22;42920;45.306;20.448;2023-07-13T18:15:34;819.60;1664.00
57030;DHT22;42920;45.306;20.448;2023-07-13T18:18:00;819.60;1689.60
57030;DHT22;42920;45.306;20.448;2023-07-13T18:20:26;819.40;1689.60
57030;DHT22;42920;45.306;20.448;2023-07-13T18:22:52;819.40;1689.60
57030;DHT22;42920;45.306;20.448;2023-07-13T18:25:21;819.30;1715.20
57030;DHT22;42920;45.306;20.448;2023-07-13T18:27:47;819.20;1715.20
57030;DHT22;42920;45.306;20.448;2023-07-13T18:30:15;819.20;1715.20
57030;DHT22;42920;45.306;20.448;2023-07-13T18:32:44;794.40;1715.20
57030;DHT22;42920;45.306;20.448;2023-07-13T18:35:17;794.30;1715.20
57030;DHT22;42920;45.306;20.448;2023-07-13T18:37:43;794.20;1740.80
57030;DHT22;42920;45.306;20.448;2023-07-13T18:40:14;794.20;1740.80
57030;DHT22;42920;45.306;20.448;2023-07-13T19:00:38;793.70;1792.00
57030;DHT22;42920;45.306;20.448;2023-07-13T19:03:13;743.30;1817.60
57030;DHT22;42920;45.306;20.448;2023-07-13T19:05:40;742.80;1868.80
57030;DHT22;42920;45.306;20.448;2023-07-13T19:08:14;742.40;1971.20
57030;DHT22;42920;45.306;20.448;2023-07-13T19:10:41;717.40;2073.60
57030;DHT22;42920;45.306;20.448;2023-07-13T19:13:09;717.20;2201.60
57030;DHT22;42920;45.306;20.448;2023-07-13T19:15:35;717.00;2380.80
57030;DHT22;42920;45.306;20.448;2023-07-13T19:18:10;716.80;2432.00
57030;DHT22;42920;45.306;20.448;2023-07-13T19:20:39;716.80;2432.00
57030;DHT22;42920;45.306;20.448;2023-07-13T19:25:47;716.90;2432.00
57030;DHT22;42920;45.306;20.448;2023-07-13T19:28:31;716.80;2432.00
57030;DHT22;42920;45.306;20.448;2023-07-13T19:30:59;716.80;2432.00
57030;DHT22;42920;45.306;20.448;2023-07-13T19:33:24;716.80;2432.00
57030;DHT22;42920;45.306;20.448;2023-07-13T19:35:51;692.10;2432.00
57030;DHT22;42920;45.306;20.448;2023-07-13T19:38:24;691.90;2432.00
57030;DHT22;42920;45.306;20.448;2023-07-13T19:40:51;691.80;2432.00
57030;DHT22;42920;45.306;20.448;2023-07-13T19:43:17;691.60;2432.00
57030;DHT22;42920;45.306;20.448;2023-07-13T19:45:43;691.50;2432.00
57030;DHT22;42920;45.306;20.448;2023-07-13T19:48:08;691.40;2432.00
57030;DHT22;42920;45.306;20.448;2023-07-13T19:50:37;691.40;2432.00
57030;DHT22;42920;45.306;20.448;2023-07-13T19:53:03;691.50;2432.00
57030;DHT22;42920;45.306;20.448;2023-07-13T19:55:29;691.50;2432.00
57030;DHT22;42920;45.306;20.448;2023-07-13T19:57:55;691.40;2432.00
57030;DHT22;42920;45.306;20.448;2023-07-13T20:00:24;691.40;2432.00
57030;DHT22;42920;45.306;20.448;2023-07-13T20:02:50;691.40;2432.00
57030;DHT22;42920;45.306;20.448;2023-07-13T20:05:21;691.50;2432.00
57030;DHT22;42920;45.306;20.448;2023-07-13T20:07:59;691.50;2432.00
57030;DHT22;42920;45.306;20.448;2023-07-13T20:10:27;666.30;2432.00
57030;DHT22;42920;45.306;20.448;2023-07-13T20:12:57;691.40;2432.00
57030;DHT22;42920;45.306;20.448;2023-07-13T20:15:30;691.20;2432.00
57030;DHT22;42920;45.306;20.448;2023-07-13T20:17:58;666.50;2432.00
57030;DHT22;42920;45.306;20.448;2023-07-13T20:22:59;691.20;2432.00
57030;DHT22;42920;45.306;20.448;2023-07-13T20:25:30;691.30;2432.00
57030;DHT22;42920;45.306;20.448;2023-07-13T20:27:58;691.20;2432.00
57030;DHT22;42920;45.306;20.448;2023-07-13T20:30:35;691.40;2432.00
57030;DHT22;42920;45.306;20.448;2023-07-13T20:33:02;691.30;2432.00
57030;DHT22;42920;45.306;20.448;2023-07-13T20:35:33;691.30;2432.00
57030;DHT22;42920;45.306;20.448;2023-07-13T20:38:01;691.30;2432.00
57030;DHT22;42920;45.306;20.448;2023-07-13T20:40:30;691.40;2432.00
57030;DHT22;42920;45.306;20.448;2023-07-13T20:42:57;691.40;2432.00
57030;DHT22;42920;45.306;20.448;2023-07-13T20:45:26;691.40;2432.00
57030;DHT22;42920;45.306;20.448;2023-07-13T20:47:52;691.30;2432.00
57030;DHT22;42920;45.306;20.448;2023-07-13T20:50:27;691.30;2432.00
57030;DHT22;42920;45.306;20.448;2023-07-13T20:52:59;691.30;2432.00